Time;durP1;ratioP1;P1;durP2;ratioP2;P2;SDS_P1;SDS_P2;PMS_P1;PMS_P2;Temp;Humidity;BMP_temperature;BMP_pressure;BME280_temperature;BME280_humidity;BME280_pressure;Samples;Min_cycle;Max_cycle;Signal;HPM_P1;HPM_P2
2021/12/27 00:00:01;;;;;;;45.63;14.07;;;;;;;;;;6291805;28;20170;-80
2021/12/27 00:03:11;;;;;;;44.42;14.73;;;;;;;;;;6291223;28;20127;-80
2021/12/27 00:06:13;;;;;;;37.78;13.25;;;;;;;;;;6273534;28;20047;-80
2021/12/27 00:09:14;;;;;;;37.53;12.93;;;;;;;;;;6276513;28;20129;-80
2021/12/27 00:12:16;;;;;;;39.42;14.57;;;;;;;;;;6288926;28;20044;-81
2021/12/27 00:15:18;;;;;;;38.67;12.98;;;;;;;;;;6272844;28;20054;-80
2021/12/27 00:18:19;;;;;;;36.08;12.18;;;;;;;;;;6272779;28;20045;-79
2021/12/27 00:21:21;;;;;;;37.72;13.27;;;;;;;;;;6272899;28;20047;-81
2021/12/27 00:24:23;;;;;;;37.15;12.60;;;;;;;;;;6289090;28;20050;-81
2021/12/27 00:27:25;;;;;;;36.65;12.80;;;;;;;;;;6297529;28;20036;-79
2021/12/27 00:30:27;;;;;;;43.22;13.20;;;;;;;;;;6297001;28;20067;-80
2021/12/27 00:33:29;;;;;;;41.10;12.57;;;;;;;;;;6281135;28;20044;-78
2021/12/27 00:36:30;;;;;;;41.70;13.50;;;;;;;;;;6290107;28;20120;-79
2021/12/27 00:39:32;;;;;;;41.50;12.75;;;;;;;;;;6300616;28;20032;-81
2021/12/27 00:42:34;;;;;;;43.05;12.82;;;;;;;;;;6313256;28;20049;-80
2021/12/27 00:45:36;;;;;;;37.20;12.43;;;;;;;;;;6293400;28;20044;-81
2021/12/27 00:48:37;;;;;;;36.75;12.98;;;;;;;;;;6289798;28;20502;-79
2021/12/27 00:51:39;;;;;;;35.17;12.35;;;;;;;;;;6290188;28;20717;-81
2021/12/27 00:54:41;;;;;;;36.58;12.63;;;;;;;;;;6278364;28;20525;-81
2021/12/27 00:57:43;;;;;;;37.70;12.23;;;;;;;;;;6277622;28;20044;-80
2021/12/27 01:00:45;;;;;;;42.13;13.30;;;;;;;;;;6285631;28;20040;-80
2021/12/27 01:03:47;;;;;;;37.63;12.23;;;;;;;;;;6297432;28;20044;-81
2021/12/27 01:06:48;;;;;;;42.75;12.98;;;;;;;;;;6297449;28;20042;-79
2021/12/27 01:10:05;;;;;;;38.33;13.32;;;;;;;;;;6285598;28;20040;-81
2021/12/27 01:13:35;;;;;;;32.20;11.88;;;;;;;;;;6279852;28;20044;-81
2021/12/27 01:16:49;;;;;;;34.40;11.88;;;;;;;;;;6309749;28;20127;-80
2021/12/27 01:19:51;;;;;;;39.05;13.15;;;;;;;;;;6296803;28;20060;-80
2021/12/27 01:22:54;;;;;;;39.72;12.13;;;;;;;;;;6295489;28;20032;-81
2021/12/27 01:25:56;;;;;;;38.33;11.60;;;;;;;;;;6314769;28;20052;-80
2021/12/27 01:29:00;;;;;;;40.83;12.70;;;;;;;;;;6297303;28;20146;-79
2021/12/27 01:32:02;;;;;;;35.83;11.85;;;;;;;;;;6311604;28;20044;-79
2021/12/27 01:35:05;;;;;;;33.70;12.48;;;;;;;;;;6315544;28;20048;-78
2021/12/27 01:38:07;;;;;;;35.17;11.80;;;;;;;;;;6297049;28;20040;-81
2021/12/27 01:41:12;;;;;;;37.08;11.88;;;;;;;;;;6312872;28;20055;-79
2021/12/27 01:44:14;;;;;;;39.72;13.07;;;;;;;;;;6295797;28;20097;-81
2021/12/27 01:47:16;;;;;;;37.13;12.52;;;;;;;;;;6273440;28;20045;-81
2021/12/27 01:50:17;;;;;;;36.45;10.98;;;;;;;;;;6289585;28;20047;-79
2021/12/27 01:53:21;;;;;;;38.47;12.40;;;;;;;;;;6271620;28;20040;-78
2021/12/27 01:56:24;;;;;;;39.05;13.23;;;;;;;;;;6272997;28;20051;-81
2021/12/27 01:59:26;;;;;;;39.20;12.90;;;;;;;;;;6273836;28;20034;-79
2021/12/27 02:02:27;;;;;;;36.80;12.23;;;;;;;;;;6254837;28;20051;-81
2021/12/27 02:05:30;;;;;;;36.45;11.73;;;;;;;;;;6288738;28;20044;-80
2021/12/27 02:08:32;;;;;;;45.67;12.90;;;;;;;;;;6273169;28;20041;-81
2021/12/27 02:11:34;;;;;;;39.03;13.07;;;;;;;;;;6279675;28;20505;-81
2021/12/27 02:14:36;;;;;;;40.03;12.80;;;;;;;;;;6314934;28;20051;-79
2021/12/27 02:17:42;;;;;;;41.50;12.38;;;;;;;;;;6292801;28;20112;-81
2021/12/27 02:20:45;;;;;;;36.55;12.50;;;;;;;;;;6259437;28;20126;-81
2021/12/27 02:23:49;;;;;;;40.95;12.20;;;;;;;;;;6276520;28;20037;-81
2021/12/27 02:26:51;;;;;;;31.27;12.00;;;;;;;;;;6282071;28;20850;-81
2021/12/27 02:29:53;;;;;;;43.08;13.35;;;;;;;;;;6295144;28;20040;-81
2021/12/27 02:32:58;;;;;;;34.70;12.63;;;;;;;;;;6275269;28;20404;-81
2021/12/27 02:35:59;;;;;;;36.28;12.18;;;;;;;;;;6293567;28;20127;-81
2021/12/27 02:39:03;;;;;;;35.70;11.48;;;;;;;;;;6292825;28;20044;-80
2021/12/27 02:42:05;;;;;;;37.30;12.38;;;;;;;;;;6291314;28;20488;-80
2021/12/27 02:45:07;;;;;;;36.08;11.43;;;;;;;;;;6296890;28;20058;-79
2021/12/27 02:48:10;;;;;;;29.45;10.05;;;;;;;;;;6293397;28;20044;-79
2021/12/27 02:51:13;;;;;;;30.02;10.48;;;;;;;;;;6261717;28;20127;-80
2021/12/27 02:54:14;;;;;;;34.83;11.30;;;;;;;;;;6270522;28;20040;-81
2021/12/27 02:57:16;;;;;;;29.95;10.13;;;;;;;;;;6303790;28;20048;-80
2021/12/27 03:00:23;;;;;;;32.92;10.68;;;;;;;;;;6280090;28;20065;-79
2021/12/27 03:03:25;;;;;;;34.45;10.75;;;;;;;;;;6279867;28;20040;-81
2021/12/27 03:06:27;;;;;;;31.73;10.43;;;;;;;;;;6315076;28;20104;-81
2021/12/27 03:09:29;;;;;;;34.30;10.90;;;;;;;;;;6286053;28;20040;-82
2021/12/27 03:12:30;;;;;;;31.75;10.20;;;;;;;;;;6304360;28;20420;-80
2021/12/27 03:15:32;;;;;;;27.52;10.07;;;;;;;;;;6276567;28;20051;-79
2021/12/27 03:18:35;;;;;;;29.38;9.95;;;;;;;;;;6316988;28;20512;-81
2021/12/27 03:21:37;;;;;;;27.88;10.10;;;;;;;;;;6297936;28;20050;-81
2021/12/27 03:24:39;;;;;;;30.48;9.68;;;;;;;;;;6281352;28;20150;-80
2021/12/27 03:27:41;;;;;;;31.88;10.25;;;;;;;;;;6311041;28;20039;-80
2021/12/27 03:30:45;;;;;;;31.70;11.55;;;;;;;;;;6289068;28;20520;-79
2021/12/27 03:33:47;;;;;;;32.35;10.48;;;;;;;;;;6295652;28;20040;-80
2021/12/27 03:36:48;;;;;;;29.02;10.75;;;;;;;;;;6273072;28;20494;-80
2021/12/27 03:39:51;;;;;;;28.48;10.13;;;;;;;;;;6288118;28;20066;-80
2021/12/27 03:42:53;;;;;;;32.38;10.48;;;;;;;;;;6297483;28;20062;-81
2021/12/27 03:45:55;;;;;;;34.17;10.55;;;;;;;;;;6302010;28;20039;-81
2021/12/27 03:48:57;;;;;;;29.38;10.30;;;;;;;;;;6256974;28;20532;-80
2021/12/27 03:51:59;;;;;;;34.60;10.80;;;;;;;;;;6272973;28;20040;-82
2021/12/27 03:55:00;;;;;;;26.92;10.00;;;;;;;;;;6285498;28;20040;-81
2021/12/27 03:58:08;;;;;;;27.38;9.77;;;;;;;;;;6277002;28;20158;-82
2021/12/27 04:01:16;;;;;;;33.65;10.38;;;;;;;;;;6309090;28;20469;-82
2021/12/27 04:04:19;;;;;;;31.10;10.23;;;;;;;;;;6302668;28;20078;-83
2021/12/27 04:07:22;;;;;;;29.42;9.82;;;;;;;;;;6302139;28;20050;-82
2021/12/27 04:10:24;;;;;;;;;;;;;;;;;;6311039;28;20051;-83
2021/12/27 04:13:27;;;;;;;34.85;9.85;;;;;;;;;;6301124;28;19920;-83
2021/12/27 04:16:29;;;;;;;;;;;;;;;;;;6306952;28;20177;-83
2021/12/27 04:19:32;;;;;;;30.55;9.82;;;;;;;;;;6301373;28;19947;-83
2021/12/27 04:22:33;;;;;;;33.22;10.40;;;;;;;;;;6315136;28;20036;-82
2021/12/27 04:25:48;;;;;;;30.92;9.75;;;;;;;;;;6308232;28;20100;-80
2021/12/27 04:28:51;;;;;;;31.77;10.32;;;;;;;;;;6315274;28;20051;-81
2021/12/27 04:31:52;;;;;;;30.70;9.88;;;;;;;;;;6314862;28;20598;-80
2021/12/27 04:34:54;;;;;;;33.55;10.80;;;;;;;;;;6316622;28;20042;-82
2021/12/27 04:37:56;;;;;;;29.23;9.68;;;;;;;;;;6311672;28;20036;-83
2021/12/27 04:40:58;;;;;;;32.83;11.10;;;;;;;;;;6313900;28;20044;-83
2021/12/27 04:44:00;;;;;;;27.30;9.85;;;;;;;;;;6284323;28;20115;-84
2021/12/27 04:47:02;;;;;;;34.78;10.63;;;;;;;;;;6286860;28;20039;-83
2021/12/27 04:50:05;;;;;;;31.80;10.40;;;;;;;;;;6293712;28;20040;-83
2021/12/27 04:53:07;;;;;;;37.10;9.90;;;;;;;;;;6305855;28;20043;-83
2021/12/27 04:56:08;;;;;;;28.15;9.00;;;;;;;;;;6318578;28;20555;-82
2021/12/27 04:59:10;;;;;;;26.80;9.00;;;;;;;;;;6318869;28;20339;-79
2021/12/27 05:02:11;;;;;;;35.63;10.43;;;;;;;;;;6302275;28;20050;-83
2021/12/27 05:05:13;;;;;;;33.95;10.60;;;;;;;;;;6301564;28;20117;-84
2021/12/27 05:08:16;;;;;;;33.40;8.55;;;;;;;;;;6300641;28;20058;-85
2021/12/27 05:11:20;;;;;;;79.45;21.38;;;;;;;;;;6291947;28;20058;-82
2021/12/27 05:14:22;;;;;;;73.37;23.33;;;;;;;;;;6316201;28;20047;-83
2021/12/27 05:17:24;;;;;;;47.72;13.20;;;;;;;;;;6300959;28;20044;-84
2021/12/27 05:20:25;;;;;;;29.77;10.27;;;;;;;;;;6283386;28;20189;-81
2021/12/27 05:23:27;;;;;;;31.83;8.85;;;;;;;;;;6300609;28;20042;-83
2021/12/27 05:26:28;;;;;;;31.02;10.00;;;;;;;;;;6300039;28;20412;-83
2021/12/27 05:29:31;;;;;;;32.00;9.32;;;;;;;;;;6309072;28;20036;-84
2021/12/27 05:32:34;;;;;;;41.38;13.05;;;;;;;;;;6297894;28;20127;-85
2021/12/27 05:35:36;;;;;;;51.08;17.60;;;;;;;;;;6311048;28;20375;-82
2021/12/27 05:38:38;;;;;;;41.92;15.02;;;;;;;;;;6318151;28;20051;-83
2021/12/27 05:41:39;;;;;;;31.17;9.90;;;;;;;;;;6271957;28;20062;-86
2021/12/27 05:44:41;;;;;;;34.20;10.27;;;;;;;;;;6287287;28;20059;-83
2021/12/27 05:47:43;;;;;;;35.78;9.88;;;;;;;;;;6310288;28;20049;-83
2021/12/27 05:50:45;;;;;;;56.88;11.18;;;;;;;;;;6305745;28;20123;-83
2021/12/27 05:53:47;;;;;;;60.97;12.60;;;;;;;;;;6311670;28;20177;-82
2021/12/27 05:56:49;;;;;;;61.30;13.75;;;;;;;;;;6312941;28;20050;-83
2021/12/27 05:59:51;;;;;;;58.00;13.43;;;;;;;;;;6307087;28;20130;-86
2021/12/27 06:02:54;;;;;;;55.05;13.48;;;;;;;;;;6319919;28;20036;-83
2021/12/27 06:05:56;;;;;;;40.47;10.90;;;;;;;;;;6304197;28;20060;-82
2021/12/27 06:08:58;;;;;;;46.50;10.98;;;;;;;;;;6315438;28;20041;-83
2021/12/27 06:11:59;;;;;;;33.90;8.93;;;;;;;;;;6300296;28;20058;-82
2021/12/27 06:15:01;;;;;;;42.08;9.43;;;;;;;;;;6291440;28;20249;-85
2021/12/27 06:18:03;;;;;;;113.85;13.95;;;;;;;;;;6289174;28;20182;-81
2021/12/27 06:21:05;;;;;;;44.67;12.23;;;;;;;;;;6294680;28;20058;-81
2021/12/27 06:24:11;;;;;;;47.72;13.27;;;;;;;;;;6299207;28;20040;-81
2021/12/27 06:27:13;;;;;;;53.03;13.85;;;;;;;;;;6288903;28;20099;-81
2021/12/27 06:30:16;;;;;;;46.20;11.07;;;;;;;;;;6278151;28;20052;-81
2021/12/27 06:33:17;;;;;;;39.55;10.95;;;;;;;;;;6304672;28;20124;-81
2021/12/27 06:36:19;;;;;;;43.33;12.02;;;;;;;;;;6278886;28;20050;-83
2021/12/27 06:39:20;;;;;;;36.95;11.02;;;;;;;;;;6305679;28;20136;-86
2021/12/27 06:42:22;;;;;;;72.00;11.98;;;;;;;;;;6286785;28;20036;-82
2021/12/27 06:45:24;;;;;;;90.35;13.68;;;;;;;;;;6320050;28;20062;-81
2021/12/27 06:48:26;;;;;;;51.10;12.27;;;;;;;;;;6314604;28;20147;-82
2021/12/27 06:51:29;;;;;;;40.95;11.65;;;;;;;;;;6296099;28;20040;-87
2021/12/27 06:54:31;;;;;;;35.33;9.63;;;;;;;;;;6284108;28;20036;-86
2021/12/27 06:57:33;;;;;;;46.65;10.80;;;;;;;;;;6322624;28;20040;-85
2021/12/27 07:00:35;;;;;;;43.58;12.52;;;;;;;;;;6301261;28;20040;-84
2021/12/27 07:03:36;;;;;;;58.22;15.45;;;;;;;;;;6303669;28;20040;-80
2021/12/27 07:06:38;;;;;;;55.25;15.57;;;;;;;;;;6301167;28;20560;-80
2021/12/27 07:09:39;;;;;;;71.00;18.98;;;;;;;;;;6289834;28;20053;-80
2021/12/27 07:12:41;;;;;;;51.60;16.13;;;;;;;;;;6292804;28;20045;-80
2021/12/27 07:15:44;;;;;;;72.68;12.95;;;;;;;;;;6287120;28;20040;-81
2021/12/27 07:18:46;;;;;;;79.80;12.57;;;;;;;;;;6298545;28;20417;-82
2021/12/27 07:21:49;;;;;;;32.83;9.95;;;;;;;;;;6285221;28;20425;-80
2021/12/27 07:24:55;;;;;;;38.28;12.63;;;;;;;;;;6282174;28;20048;-79
2021/12/27 07:27:57;;;;;;;48.47;13.48;;;;;;;;;;6295298;28;20048;-79
2021/12/27 07:30:59;;;;;;;50.25;12.30;;;;;;;;;;6280638;28;20048;-81
2021/12/27 07:34:01;;;;;;;40.65;11.20;;;;;;;;;;6303955;28;20676;-79
2021/12/27 07:37:05;;;;;;;39.70;11.93;;;;;;;;;;6290885;28;20642;-80
2021/12/27 07:40:09;;;;;;;35.17;10.52;;;;;;;;;;6304904;28;20047;-81
2021/12/27 07:43:11;;;;;;;153.25;27.98;;;;;;;;;;6304427;28;20032;-81
2021/12/27 07:46:12;;;;;;;76.75;16.35;;;;;;;;;;6314315;28;20048;-79
2021/12/27 07:49:15;;;;;;;49.30;12.02;;;;;;;;;;6315458;28;20055;-76
2021/12/27 07:52:17;;;;;;;39.95;11.10;;;;;;;;;;6309009;28;20420;-79
2021/12/27 07:55:19;;;;;;;41.58;12.10;;;;;;;;;;6266378;28;20045;-79
2021/12/27 07:58:21;;;;;;;43.03;9.52;;;;;;;;;;6241110;28;20051;-77
2021/12/27 08:01:23;;;;;;;66.32;18.33;;;;;;;;;;6236364;28;20195;-81
2021/12/27 08:04:25;;;;;;;38.42;11.32;;;;;;;;;;6249934;28;20813;-82
2021/12/27 08:07:27;;;;;;;60.55;13.75;;;;;;;;;;6248626;28;20053;-80
2021/12/27 08:10:29;;;;;;;56.60;13.25;;;;;;;;;;6254491;28;20052;-82
2021/12/27 08:13:31;;;;;;;54.13;15.55;;;;;;;;;;6234823;28;20078;-80
2021/12/27 08:16:33;;;;;;;67.20;19.80;;;;;;;;;;6246209;28;20040;-81
2021/12/27 08:19:34;;;;;;;56.22;17.35;;;;;;;;;;6263892;28;20051;-80
2021/12/27 08:22:36;;;;;;;62.13;17.70;;;;;;;;;;6234148;28;20138;-83
2021/12/27 08:25:38;;;;;;;65.47;18.80;;;;;;;;;;6242473;28;20041;-83
2021/12/27 08:28:40;;;;;;;48.63;14.65;;;;;;;;;;6243779;28;20047;-82
2021/12/27 08:31:42;;;;;;;67.00;15.82;;;;;;;;;;6244572;28;20544;-81
2021/12/27 08:34:44;;;;;;;57.45;16.20;;;;;;;;;;6245176;28;20046;-80
2021/12/27 08:37:46;;;;;;;65.68;19.13;;;;;;;;;;6219184;28;20498;-82
2021/12/27 08:40:48;;;;;;;109.38;22.30;;;;;;;;;;6250105;28;20045;-80
2021/12/27 08:43:50;;;;;;;84.10;20.42;;;;;;;;;;6254295;28;20036;-80
2021/12/27 08:46:51;;;;;;;53.83;14.52;;;;;;;;;;6239597;28;20045;-80
2021/12/27 08:49:53;;;;;;;58.40;13.88;;;;;;;;;;6230505;28;20060;-82
2021/12/27 08:53:05;;;;;;;49.97;10.90;;;;;;;;;;6225606;28;20065;-79
2021/12/27 08:56:07;;;;;;;50.47;10.48;;;;;;;;;;6237559;28;20499;-80
2021/12/27 08:59:09;;;;;;;40.63;9.90;;;;;;;;;;6241072;28;20059;-80
2021/12/27 09:02:10;;;;;;;29.80;8.75;;;;;;;;;;6246980;28;20037;-81
2021/12/27 09:05:13;;;;;;;97.85;12.98;;;;;;;;;;6218925;28;20141;-80
2021/12/27 09:08:14;;;;;;;72.32;12.55;;;;;;;;;;6209306;28;20495;-80
2021/12/27 09:11:16;;;;;;;47.92;11.82;;;;;;;;;;6224984;28;20083;-82
2021/12/27 09:14:18;;;;;;;45.95;11.30;;;;;;;;;;6224026;28;20048;-79
2021/12/27 09:17:20;;;;;;;76.82;12.77;;;;;;;;;;6225289;28;20045;-80
2021/12/27 09:20:22;;;;;;;41.75;11.35;;;;;;;;;;6246345;28;20037;-81
2021/12/27 09:23:24;;;;;;;40.20;11.85;;;;;;;;;;6242152;28;20088;-79
2021/12/27 09:26:25;;;;;;;45.22;11.10;;;;;;;;;;6205259;28;20072;-82
2021/12/27 09:29:27;;;;;;;43.72;11.85;;;;;;;;;;6217438;28;20054;-79
2021/12/27 09:32:29;;;;;;;80.90;17.48;;;;;;;;;;6232588;28;20119;-80
2021/12/27 09:35:31;;;;;;;109.22;24.40;;;;;;;;;;6257658;28;20179;-82
2021/12/27 09:38:33;;;;;;;60.65;18.23;;;;;;;;;;6228160;28;20136;-80
2021/12/27 09:41:35;;;;;;;87.55;22.50;;;;;;;;;;6222038;28;20046;-79
2021/12/27 09:44:36;;;;;;;44.53;16.00;;;;;;;;;;6229738;28;20045;-80
2021/12/27 09:47:38;;;;;;;61.30;18.23;;;;;;;;;;6256603;28;20049;-82
2021/12/27 09:50:55;;;;;;;56.50;15.80;;;;;;;;;;6227834;28;20048;-80
2021/12/27 09:53:56;;;;;;;88.63;15.65;;;;;;;;;;6226479;28;20045;-80
2021/12/27 09:56:58;;;;;;;63.22;12.98;;;;;;;;;;6240561;28;20053;-80
2021/12/27 10:00:00;;;;;;;50.15;12.95;;;;;;;;;;6238898;28;20744;-82
2021/12/27 10:03:02;;;;;;;74.85;15.48;;;;;;;;;;6239868;28;20045;-82
2021/12/27 10:06:11;;;;;;;56.05;18.48;;;;;;;;;;6231091;28;20041;-80
2021/12/27 10:09:14;;;;;;;42.13;13.00;;;;;;;;;;6246591;28;20059;-83
2021/12/27 10:12:20;;;;;;;45.47;16.40;;;;;;;;;;6230561;28;20046;-82
2021/12/27 10:15:31;;;;;;;48.33;14.45;;;;;;;;;;6240290;28;20411;-79
2021/12/27 10:18:37;;;;;;;41.75;12.85;;;;;;;;;;6230513;28;20402;-81
2021/12/27 10:21:41;;;;;;;70.78;14.98;;;;;;;;;;6240601;28;20045;-84
2021/12/27 10:24:45;;;;;;;60.75;16.38;;;;;;;;;;6230423;28;20042;-81
2021/12/27 10:27:55;;;;;;;69.65;15.07;;;;;;;;;;6229181;28;20045;-81
2021/12/27 10:31:02;;;;;;;83.15;16.13;;;;;;;;;;6218853;28;20095;-82
2021/12/27 10:34:04;;;;;;;82.13;19.00;;;;;;;;;;6222009;28;20046;-80
2021/12/27 10:37:22;;;;;;;95.07;25.25;;;;;;;;;;6256373;28;20051;-82
2021/12/27 10:40:24;;;;;;;105.60;21.33;;;;;;;;;;6256731;28;20064;-81
2021/12/27 10:43:55;;;;;;;70.47;21.98;;;;;;;;;;6252959;28;20045;-80
2021/12/27 10:47:37;;;;;;;38.75;13.25;;;;;;;;;;6235124;28;20049;-80
2021/12/27 10:50:39;;;;;;;41.50;11.65;;;;;;;;;;6226783;28;20046;-81
2021/12/27 10:53:43;;;;;;;37.47;11.07;;;;;;;;;;6232003;28;20108;-81
2021/12/27 10:56:53;;;;;;;101.63;23.80;;;;;;;;;;6240705;28;20406;-82
2021/12/27 11:00:15;;;;;;;47.45;12.55;;;;;;;;;;6209657;28;20051;-80
2021/12/27 11:03:30;;;;;;;33.28;10.43;;;;;;;;;;6240248;28;20049;-80
2021/12/27 11:06:36;;;;;;;31.33;10.65;;;;;;;;;;6242070;28;20056;-81
2021/12/27 11:09:38;;;;;;;27.73;9.55;;;;;;;;;;6243483;28;20083;-81
2021/12/27 11:12:39;;;;;;;33.80;9.90;;;;;;;;;;6261756;28;20499;-81
2021/12/27 11:15:42;;;;;;;32.90;7.90;;;;;;;;;;6254945;28;20046;-83
2021/12/27 11:18:45;;;;;;;22.00;8.23;;;;;;;;;;6252022;28;20667;-80
2021/12/27 11:21:49;;;;;;;25.83;8.57;;;;;;;;;;6255163;28;20564;-79
2021/12/27 11:24:51;;;;;;;26.77;7.53;;;;;;;;;;6235952;28;20049;-77
2021/12/27 11:27:53;;;;;;;23.48;8.50;;;;;;;;;;6248303;28;20065;-80
2021/12/27 11:30:56;;;;;;;20.30;9.07;;;;;;;;;;6256281;28;20127;-82
2021/12/27 11:34:01;;;;;;;24.67;10.52;;;;;;;;;;6237052;28;20060;-81
2021/12/27 11:37:09;;;;;;;26.15;10.35;;;;;;;;;;6238916;28;20049;-82
2021/12/27 11:40:13;;;;;;;28.65;9.20;;;;;;;;;;6230777;28;20091;-81
2021/12/27 11:43:15;;;;;;;27.20;9.60;;;;;;;;;;6242679;28;20049;-81
2021/12/27 11:46:17;;;;;;;96.97;10.82;;;;;;;;;;6247801;28;20052;-81
2021/12/27 11:49:51;;;;;;;19.15;7.05;;;;;;;;;;6249593;28;20052;-81
2021/12/27 11:52:55;;;;;;;99.65;45.33;;;;;;;;;;6222137;28;20046;-80
2021/12/27 11:55:56;;;;;;;30.92;12.15;;;;;;;;;;6246197;28;20044;-81
2021/12/27 11:58:58;;;;;;;34.72;10.88;;;;;;;;;;6265959;28;20068;-80
2021/12/27 12:02:24;;;;;;;41.13;12.60;;;;;;;;;;6255718;28;20798;-79
2021/12/27 12:05:48;;;;;;;28.60;10.45;;;;;;;;;;6212616;28;20061;-80
2021/12/27 12:08:51;;;;;;;;;;;;;;;;;;6247867;28;20045;-82
2021/12/27 12:12:01;;;;;;;21.48;8.10;;;;;;;;;;6268222;28;20050;-82
2021/12/27 12:15:03;;;;;;;113.20;14.68;;;;;;;;;;6249121;28;20044;-81
2021/12/27 12:18:17;;;;;;;24.45;9.90;;;;;;;;;;6238098;28;20041;-78
2021/12/27 12:21:33;;;;;;;20.52;8.15;;;;;;;;;;6221124;28;20515;-80
2021/12/27 12:24:35;;;;;;;25.98;8.82;;;;;;;;;;6255669;28;20069;-78
2021/12/27 12:27:37;;;;;;;27.52;9.73;;;;;;;;;;6270670;28;20041;-80
2021/12/27 12:30:40;;;;;;;33.03;11.43;;;;;;;;;;6250848;28;20652;-80
2021/12/27 12:33:41;;;;;;;27.33;9.38;;;;;;;;;;6271638;28;20490;-81
2021/12/27 12:37:02;;;;;;;32.45;10.68;;;;;;;;;;6270731;28;20289;-80
2021/12/27 12:40:05;;;;;;;29.65;10.52;;;;;;;;;;6248519;28;20133;-81
2021/12/27 12:43:06;;;;;;;33.13;10.55;;;;;;;;;;6241857;28;20045;-81
2021/12/27 12:46:12;;;;;;;28.52;9.95;;;;;;;;;;6230143;28;20219;-82
2021/12/27 12:49:24;;;;;;;34.40;10.40;;;;;;;;;;6266927;28;20048;-81
2021/12/27 12:52:26;;;;;;;28.08;9.35;;;;;;;;;;6241395;28;20049;-80
2021/12/27 12:55:34;;;;;;;26.17;9.18;;;;;;;;;;6230636;28;20052;-81
2021/12/27 12:58:38;;;;;;;34.17;10.18;;;;;;;;;;6215865;28;20045;-82
2021/12/27 13:01:57;;;;;;;38.00;12.80;;;;;;;;;;6245785;28;20136;-80
2021/12/27 13:05:02;;;;;;;34.60;11.90;;;;;;;;;;6269981;28;20044;-79
2021/12/27 13:08:04;;;;;;;40.58;17.15;;;;;;;;;;6253150;28;20047;-78
2021/12/27 13:11:05;;;;;;;47.40;15.70;;;;;;;;;;6258734;28;20047;-79
2021/12/27 13:14:07;;;;;;;42.50;15.70;;;;;;;;;;6232557;28;20494;-80
2021/12/27 13:17:14;;;;;;;51.22;16.67;;;;;;;;;;6249961;28;20055;-81
2021/12/27 13:20:16;;;;;;;32.08;12.82;;;;;;;;;;6220855;28;20056;-79
2021/12/27 13:23:19;;;;;;;64.53;21.52;;;;;;;;;;6226831;28;20060;-80
2021/12/27 13:26:21;;;;;;;;;;;;;;;;;;6219182;28;20123;-81
2021/12/27 13:29:22;;;;;;;78.13;13.00;;;;;;;;;;6243141;28;19929;-78
2021/12/27 13:32:24;;;;;;;71.90;10.75;;;;;;;;;;6248252;28;20038;-81
2021/12/27 13:35:26;;;;;;;68.43;12.98;;;;;;;;;;6215700;28;20052;-80
2021/12/27 13:38:33;;;;;;;38.75;12.13;;;;;;;;;;6221286;28;20050;-78
2021/12/27 13:41:38;;;;;;;52.22;14.00;;;;;;;;;;6255589;28;20610;-78
2021/12/27 13:44:39;;;;;;;41.35;14.38;;;;;;;;;;6226179;28;20042;-77
2021/12/27 13:47:52;;;;;;;35.33;13.00;;;;;;;;;;6237540;28;20101;-80
2021/12/27 13:50:54;;;;;;;35.50;11.20;;;;;;;;;;6223507;28;20037;-78
2021/12/27 13:54:02;;;;;;;71.40;11.70;;;;;;;;;;6228644;28;20041;-78
2021/12/27 13:57:04;;;;;;;31.08;9.70;;;;;;;;;;6268960;28;20047;-80
2021/12/27 14:00:06;;;;;;;75.38;12.23;;;;;;;;;;6253350;28;20065;-79
2021/12/27 14:03:33;;;;;;;50.00;10.23;;;;;;;;;;6248382;28;20499;-81
2021/12/27 14:06:39;;;;;;;33.38;10.02;;;;;;;;;;6242308;28;20070;-78
2021/12/27 14:09:42;;;;;;;35.15;10.85;;;;;;;;;;6252363;28;20061;-81
2021/12/27 14:12:54;;;;;;;36.08;10.32;;;;;;;;;;6259466;28;20037;-79
2021/12/27 14:15:56;;;;;;;38.75;11.73;;;;;;;;;;6243294;28;20040;-80
2021/12/27 14:19:11;;;;;;;32.33;10.57;;;;;;;;;;6229792;28;20046;-79
2021/12/27 14:22:16;;;;;;;31.65;10.40;;;;;;;;;;6217954;28;20054;-80
2021/12/27 14:25:23;;;;;;;30.25;9.98;;;;;;;;;;6251732;28;20055;-79
2021/12/27 14:28:24;;;;;;;33.63;9.35;;;;;;;;;;6277250;28;20088;-80
2021/12/27 14:31:26;;;;;;;27.60;10.13;;;;;;;;;;6253307;28;20044;-81
2021/12/27 14:34:46;;;;;;;30.70;10.18;;;;;;;;;;6258094;28;20350;-80
2021/12/27 14:37:49;;;;;;;35.85;10.35;;;;;;;;;;6261948;28;20129;-82
2021/12/27 14:40:52;;;;;;;37.45;10.90;;;;;;;;;;6239134;28;20048;-79
2021/12/27 14:43:55;;;;;;;39.28;9.85;;;;;;;;;;6248446;28;20049;-81
2021/12/27 14:46:56;;;;;;;32.78;9.88;;;;;;;;;;6244012;28;20052;-80
2021/12/27 14:49:58;;;;;;;69.32;11.55;;;;;;;;;;6238538;28;20033;-79
2021/12/27 14:53:00;;;;;;;33.10;9.13;;;;;;;;;;6232199;28;20172;-79
2021/12/27 14:56:02;;;;;;;33.35;8.82;;;;;;;;;;6250239;28;20098;-80
2021/12/27 14:59:04;;;;;;;32.30;8.48;;;;;;;;;;6249056;28;20044;-77
2021/12/27 15:02:07;;;;;;;47.10;13.75;;;;;;;;;;6237287;28;20048;-80
2021/12/27 15:05:09;;;;;;;35.47;10.57;;;;;;;;;;6234267;28;20049;-80
2021/12/27 15:08:11;;;;;;;37.65;9.20;;;;;;;;;;6234095;28;20057;-79
2021/12/27 15:11:12;;;;;;;34.10;9.10;;;;;;;;;;6244734;28;20399;-79
2021/12/27 15:14:15;;;;;;;39.47;8.75;;;;;;;;;;6249852;28;20060;-80
2021/12/27 15:17:17;;;;;;;49.92;9.43;;;;;;;;;;6248775;28;20095;-79
2021/12/27 15:20:21;;;;;;;31.33;8.48;;;;;;;;;;6248620;28;20056;-79
2021/12/27 15:23:23;;;;;;;54.28;9.25;;;;;;;;;;6248056;28;20622;-80
2021/12/27 15:26:25;;;;;;;39.67;9.02;;;;;;;;;;6252760;28;20124;-81
2021/12/27 15:29:26;;;;;;;28.70;9.18;;;;;;;;;;6232575;28;20105;-80
2021/12/27 15:32:29;;;;;;;27.70;9.13;;;;;;;;;;6231613;28;20056;-79
2021/12/27 15:35:31;;;;;;;36.93;10.17;;;;;;;;;;6260946;28;20409;-77
2021/12/27 15:38:33;;;;;;;64.32;12.32;;;;;;;;;;6228961;28;21191;-80
2021/12/27 15:41:34;;;;;;;43.05;12.07;;;;;;;;;;6256149;28;20540;-80
2021/12/27 15:44:37;;;;;;;48.40;13.65;;;;;;;;;;6224801;28;20724;-78
2021/12/27 15:47:39;;;;;;;66.70;13.80;;;;;;;;;;6245740;28;20046;-78
2021/12/27 15:50:41;;;;;;;35.10;10.30;;;;;;;;;;6244796;28;20137;-78
2021/12/27 15:53:43;;;;;;;41.42;11.50;;;;;;;;;;6240289;28;20041;-77
2021/12/27 15:56:45;;;;;;;54.13;11.13;;;;;;;;;;6251187;28;20514;-79
2021/12/27 15:59:48;;;;;;;49.65;12.23;;;;;;;;;;6233069;28;20048;-78
2021/12/27 16:02:56;;;;;;;42.25;11.48;;;;;;;;;;6245860;28;20163;-80
2021/12/27 16:05:58;;;;;;;60.55;12.18;;;;;;;;;;6233444;28;20049;-77
2021/12/27 16:09:00;;;;;;;59.38;11.30;;;;;;;;;;6237171;28;20491;-77
2021/12/27 16:12:02;;;;;;;88.72;15.75;;;;;;;;;;6218242;28;20046;-80
2021/12/27 16:15:05;;;;;;;94.70;23.30;;;;;;;;;;6226141;28;20048;-78
2021/12/27 16:18:06;;;;;;;73.60;20.45;;;;;;;;;;6221004;28;20042;-77
2021/12/27 16:21:09;;;;;;;79.50;19.67;;;;;;;;;;6219120;28;20057;-79
2021/12/27 16:24:10;;;;;;;78.63;22.77;;;;;;;;;;6237077;28;20140;-79
2021/12/27 16:27:15;;;;;;;72.25;20.40;;;;;;;;;;6247418;28;20071;-79
2021/12/27 16:30:22;;;;;;;65.90;20.10;;;;;;;;;;6223186;28;20060;-79
2021/12/27 16:33:23;;;;;;;55.13;17.60;;;;;;;;;;6242688;28;20073;-77
2021/12/27 16:36:25;;;;;;;57.67;16.23;;;;;;;;;;6243905;28;20383;-79
2021/12/27 16:39:30;;;;;;;77.10;20.83;;;;;;;;;;6264279;28;20041;-79
2021/12/27 16:42:32;;;;;;;62.33;16.88;;;;;;;;;;6247852;28;20102;-78
2021/12/27 16:45:36;;;;;;;52.15;14.15;;;;;;;;;;6245651;28;20047;-77
2021/12/27 16:48:38;;;;;;;48.92;14.93;;;;;;;;;;6247744;28;20046;-79
2021/12/27 16:51:39;;;;;;;55.40;13.95;;;;;;;;;;6221767;28;20038;-79
2021/12/27 16:54:41;;;;;;;90.70;17.77;;;;;;;;;;6247917;28;20061;-79
2021/12/27 16:57:42;;;;;;;65.03;19.88;;;;;;;;;;6247149;28;20411;-77
2021/12/27 17:00:44;;;;;;;136.13;31.58;;;;;;;;;;6252293;28;20488;-80
2021/12/27 17:03:47;;;;;;;80.80;22.63;;;;;;;;;;6231019;28;20136;-78
2021/12/27 17:06:48;;;;;;;107.87;24.47;;;;;;;;;;6213794;28;20079;-80
2021/12/27 17:09:51;;;;;;;48.92;18.80;;;;;;;;;;6243708;28;20463;-79
2021/12/27 17:12:58;;;;;;;77.82;21.92;;;;;;;;;;6228632;28;20033;-79
2021/12/27 17:15:59;;;;;;;60.42;18.85;;;;;;;;;;6242994;28;20041;-79
2021/12/27 17:19:01;;;;;;;68.57;16.33;;;;;;;;;;6238024;28;20045;-79
2021/12/27 17:22:05;;;;;;;57.70;13.48;;;;;;;;;;6242034;28;20042;-79
2021/12/27 17:25:07;;;;;;;79.85;16.02;;;;;;;;;;6235094;28;20519;-77
2021/12/27 17:28:10;;;;;;;92.35;15.02;;;;;;;;;;6242046;28;20417;-78
2021/12/27 17:31:12;;;;;;;59.90;16.08;;;;;;;;;;6242102;28;20092;-78
2021/12/27 17:34:13;;;;;;;44.97;13.60;;;;;;;;;;6229293;28;20061;-80
2021/12/27 17:37:15;;;;;;;70.65;17.80;;;;;;;;;;6227175;28;20045;-79
2021/12/27 17:40:17;;;;;;;55.65;16.33;;;;;;;;;;6241278;28;20048;-79
2021/12/27 17:43:20;;;;;;;49.20;16.05;;;;;;;;;;6249853;28;20379;-78
2021/12/27 17:46:22;;;;;;;58.17;15.60;;;;;;;;;;6252968;28;20045;-79
2021/12/27 17:49:24;;;;;;;60.30;15.35;;;;;;;;;;6250028;28;20049;-77
2021/12/27 17:52:25;;;;;;;63.78;15.05;;;;;;;;;;6252737;28;20051;-79